sensor_id;sensor_type;location;lat;lon;timestamp;temperature;humidity
3940;DHT22;1984;48.312;9.244;2023-07-29T00:00:46;16.00;99.90
3940;DHT22;1984;48.312;9.244;2023-07-29T00:03:12;16.00;99.90
3940;DHT22;1984;48.312;9.244;2023-07-29T00:05:38;16.00;99.90
3940;DHT22;1984;48.312;9.244;2023-07-29T00:08:04;16.00;99.90
3940;DHT22;1984;48.312;9.244;2023-07-29T00:10:31;16.10;99.90
3940;DHT22;1984;48.312;9.244;2023-07-29T00:12:57;16.10;99.90
3940;DHT22;1984;48.312;9.244;2023-07-29T00:15:23;16.10;99.90
3940;DHT22;1984;48.312;9.244;2023-07-29T00:17:48;16.10;99.90
3940;DHT22;1984;48.312;9.244;2023-07-29T00:20:14;16.10;99.90
3940;DHT22;1984;48.312;9.244;2023-07-29T00:22:40;16.10;99.90
3940;DHT22;1984;48.312;9.244;2023-07-29T00:25:06;16.10;99.90
3940;DHT22;1984;48.312;9.244;2023-07-29T00:27:32;16.10;99.90
3940;DHT22;1984;48.312;9.244;2023-07-29T00:29:58;16.10;99.90
3940;DHT22;1984;48.312;9.244;2023-07-29T00:32:23;16.20;99.90
3940;DHT22;1984;48.312;9.244;2023-07-29T00:34:49;16.20;99.90
3940;DHT22;1984;48.312;9.244;2023-07-29T00:37:14;16.20;99.90
3940;DHT22;1984;48.312;9.244;2023-07-29T00:39:40;16.20;99.90
3940;DHT22;1984;48.312;9.244;2023-07-29T00:42:06;16.20;99.90
3940;DHT22;1984;48.312;9.244;2023-07-29T00:44:31;16.20;99.90
3940;DHT22;1984;48.312;9.244;2023-07-29T00:46:58;16.20;99.90
3940;DHT22;1984;48.312;9.244;2023-07-29T00:49:26;16.20;99.90
3940;DHT22;1984;48.312;9.244;2023-07-29T00:51:51;16.20;99.90
3940;DHT22;1984;48.312;9.244;2023-07-29T00:54:17;16.30;99.90
3940;DHT22;1984;48.312;9.244;2023-07-29T00:56:42;16.30;99.90
3940;DHT22;1984;48.312;9.244;2023-07-29T00:59:08;16.30;99.90
3940;DHT22;1984;48.312;9.244;2023-07-29T01:01:34;16.30;99.90
3940;DHT22;1984;48.312;9.244;2023-07-29T01:03:59;16.40;99.90
3940;DHT22;1984;48.312;9.244;2023-07-29T01:09:11;16.30;99.90
3940;DHT22;1984;48.312;9.244;2023-07-29T01:11:55;16.40;99.90
3940;DHT22;1984;48.312;9.244;2023-07-29T01:17:04;16.30;99.90
3940;DHT22;1984;48.312;9.244;2023-07-29T01:22:32;16.30;99.90
3940;DHT22;1984;48.312;9.244;2023-07-29T01:24:58;16.30;99.90
3940;DHT22;1984;48.312;9.244;2023-07-29T01:27:25;16.30;99.90
3940;DHT22;1984;48.312;9.244;2023-07-29T01:29:50;16.30;99.90
3940;DHT22;1984;48.312;9.244;2023-07-29T01:35:23;16.30;99.90
3940;DHT22;1984;48.312;9.244;2023-07-29T01:37:55;16.30;99.90
3940;DHT22;1984;48.312;9.244;2023-07-29T01:40:22;16.30;99.90
3940;DHT22;1984;48.312;9.244;2023-07-29T01:42:49;16.20;99.90
3940;DHT22;1984;48.312;9.244;2023-07-29T01:45:15;16.10;99.90
3940;DHT22;1984;48.312;9.244;2023-07-29T01:47:41;16.10;99.90
3940;DHT22;1984;48.312;9.244;2023-07-29T01:50:07;16.10;99.90
3940;DHT22;1984;48.312;9.244;2023-07-29T01:52:33;16.10;99.90
3940;DHT22;1984;48.312;9.244;2023-07-29T01:54:59;16.00;99.90
3940;DHT22;1984;48.312;9.244;2023-07-29T01:57:24;16.00;99.90
3940;DHT22;1984;48.312;9.244;2023-07-29T01:59:50;16.00;99.90
3940;DHT22;1984;48.312;9.244;2023-07-29T02:02:15;16.00;99.90
3940;DHT22;1984;48.312;9.244;2023-07-29T02:04:41;15.90;99.90
3940;DHT22;1984;48.312;9.244;2023-07-29T02:07:06;15.90;99.90
3940;DHT22;1984;48.312;9.244;2023-07-29T02:09:32;15.90;99.90
3940;DHT22;1984;48.312;9.244;2023-07-29T02:11:58;15.90;99.90
3940;DHT22;1984;48.312;9.244;2023-07-29T02:14:23;15.90;99.90
3940;DHT22;1984;48.312;9.244;2023-07-29T02:16:49;15.90;99.90
3940;DHT22;1984;48.312;9.244;2023-07-29T02:19:15;15.90;99.90
3940;DHT22;1984;48.312;9.244;2023-07-29T02:21:41;15.80;99.90
3940;DHT22;1984;48.312;9.244;2023-07-29T02:24:06;15.90;99.90
3940;DHT22;1984;48.312;9.244;2023-07-29T02:26:32;15.80;99.90
3940;DHT22;1984;48.312;9.244;2023-07-29T02:28:57;15.90;99.90
3940;DHT22;1984;48.312;9.244;2023-07-29T02:31:24;15.90;99.90
3940;DHT22;1984;48.312;9.244;2023-07-29T02:33:50;15.90;99.90
3940;DHT22;1984;48.312;9.244;2023-07-29T02:36:16;15.90;99.90
3940;DHT22;1984;48.312;9.244;2023-07-29T02:38:42;15.90;99.90
3940;DHT22;1984;48.312;9.244;2023-07-29T02:41:08;15.90;99.90
3940;DHT22;1984;48.312;9.244;2023-07-29T02:43:35;15.90;99.90
3940;DHT22;1984;48.312;9.244;2023-07-29T02:46:02;15.90;99.90
3940;DHT22;1984;48.312;9.244;2023-07-29T02:48:28;15.80;99.90
3940;DHT22;1984;48.312;9.244;2023-07-29T02:50:54;15.80;99.90
3940;DHT22;1984;48.312;9.244;2023-07-29T02:53:20;15.80;99.90
3940;DHT22;1984;48.312;9.244;2023-07-29T02:55:45;15.80;99.90
3940;DHT22;1984;48.312;9.244;2023-07-29T02:58:11;15.70;99.90
3940;DHT22;1984;48.312;9.244;2023-07-29T03:00:36;15.70;99.90
3940;DHT22;1984;48.312;9.244;2023-07-29T03:03:02;15.70;99.90
3940;DHT22;1984;48.312;9.244;2023-07-29T03:05:28;15.70;99.90
3940;DHT22;1984;48.312;9.244;2023-07-29T03:07:53;15.60;99.90
3940;DHT22;1984;48.312;9.244;2023-07-29T03:10:19;15.60;99.90
3940;DHT22;1984;48.312;9.244;2023-07-29T03:12:45;15.60;99.90
3940;DHT22;1984;48.312;9.244;2023-07-29T03:15:11;15.70;99.90
3940;DHT22;1984;48.312;9.244;2023-07-29T03:17:37;15.70;99.90
3940;DHT22;1984;48.312;9.244;2023-07-29T03:20:03;15.70;99.90
3940;DHT22;1984;48.312;9.244;2023-07-29T03:22:28;15.80;99.90
3940;DHT22;1984;48.312;9.244;2023-07-29T03:24:54;15.80;99.90
3940;DHT22;1984;48.312;9.244;2023-07-29T03:27:19;15.80;99.90
3940;DHT22;1984;48.312;9.244;2023-07-29T03:29:45;15.80;99.90
3940;DHT22;1984;48.312;9.244;2023-07-29T03:32:11;15.90;99.90
3940;DHT22;1984;48.312;9.244;2023-07-29T03:34:37;15.90;99.90
3940;DHT22;1984;48.312;9.244;2023-07-29T03:37:04;15.90;99.90
3940;DHT22;1984;48.312;9.244;2023-07-29T03:39:29;15.90;99.90
3940;DHT22;1984;48.312;9.244;2023-07-29T03:41:55;15.90;99.90
3940;DHT22;1984;48.312;9.244;2023-07-29T03:44:20;15.90;99.90
3940;DHT22;1984;48.312;9.244;2023-07-29T03:46:46;15.90;99.90
3940;DHT22;1984;48.312;9.244;2023-07-29T03:49:11;16.00;99.90
3940;DHT22;1984;48.312;9.244;2023-07-29T03:51:37;16.00;99.90
3940;DHT22;1984;48.312;9.244;2023-07-29T03:54:02;16.00;99.90
3940;DHT22;1984;48.312;9.244;2023-07-29T03:56:28;16.00;99.90
3940;DHT22;1984;48.312;9.244;2023-07-29T03:58:53;16.00;99.90
3940;DHT22;1984;48.312;9.244;2023-07-29T04:01:27;16.00;99.90
3940;DHT22;1984;48.312;9.244;2023-07-29T04:03:52;16.00;99.90
3940;DHT22;1984;48.312;9.244;2023-07-29T04:06:18;16.10;99.90
3940;DHT22;1984;48.312;9.244;2023-07-29T04:08:43;16.10;99.90
3940;DHT22;1984;48.312;9.244;2023-07-29T04:11:09;16.10;99.90
3940;DHT22;1984;48.312;9.244;2023-07-29T04:13:34;16.10;99.90
3940;DHT22;1984;48.312;9.244;2023-07-29T04:16:00;16.10;99.90
3940;DHT22;1984;48.312;9.244;2023-07-29T04:18:25;16.10;99.90
3940;DHT22;1984;48.312;9.244;2023-07-29T04:20:51;16.10;99.90
3940;DHT22;1984;48.312;9.244;2023-07-29T04:23:17;16.10;99.90
3940;DHT22;1984;48.312;9.244;2023-07-29T04:25:42;16.10;99.90
3940;DHT22;1984;48.312;9.244;2023-07-29T04:28:08;16.10;99.90
3940;DHT22;1984;48.312;9.244;2023-07-29T04:30:33;16.10;99.90
3940;DHT22;1984;48.312;9.244;2023-07-29T04:32:59;16.20;99.90
3940;DHT22;1984;48.312;9.244;2023-07-29T04:35:24;16.20;99.90
3940;DHT22;1984;48.312;9.244;2023-07-29T04:37:50;16.20;99.90
3940;DHT22;1984;48.312;9.244;2023-07-29T04:40:15;16.20;99.90
3940;DHT22;1984;48.312;9.244;2023-07-29T04:42:41;16.30;99.90
3940;DHT22;1984;48.312;9.244;2023-07-29T04:45:07;16.30;99.90
3940;DHT22;1984;48.312;9.244;2023-07-29T04:47:32;16.30;99.90
3940;DHT22;1984;48.312;9.244;2023-07-29T04:49:58;16.40;99.90
3940;DHT22;1984;48.312;9.244;2023-07-29T04:52:23;16.40;99.90
3940;DHT22;1984;48.312;9.244;2023-07-29T04:54:49;16.40;99.90
3940;DHT22;1984;48.312;9.244;2023-07-29T04:57:14;16.40;99.90
3940;DHT22;1984;48.312;9.244;2023-07-29T04:59:40;16.40;99.90
3940;DHT22;1984;48.312;9.244;2023-07-29T05:02:05;16.50;99.90
3940;DHT22;1984;48.312;9.244;2023-07-29T05:04:31;16.50;99.90
3940;DHT22;1984;48.312;9.244;2023-07-29T05:06:56;16.50;99.90
3940;DHT22;1984;48.312;9.244;2023-07-29T05:09:22;16.50;99.90
3940;DHT22;1984;48.312;9.244;2023-07-29T05:11:48;16.60;99.90
3940;DHT22;1984;48.312;9.244;2023-07-29T05:14:14;16.60;99.90
3940;DHT22;1984;48.312;9.244;2023-07-29T05:16:40;16.70;99.90
3940;DHT22;1984;48.312;9.244;2023-07-29T05:19:06;16.70;99.90
3940;DHT22;1984;48.312;9.244;2023-07-29T05:21:31;16.80;99.90
3940;DHT22;1984;48.312;9.244;2023-07-29T05:23:57;16.80;99.90
3940;DHT22;1984;48.312;9.244;2023-07-29T05:26:23;16.80;99.90
3940;DHT22;1984;48.312;9.244;2023-07-29T05:28:48;16.90;99.90
3940;DHT22;1984;48.312;9.244;2023-07-29T05:31:14;17.00;99.90
3940;DHT22;1984;48.312;9.244;2023-07-29T05:33:39;17.00;99.90
3940;DHT22;1984;48.312;9.244;2023-07-29T05:36:05;17.00;99.90
3940;DHT22;1984;48.312;9.244;2023-07-29T05:38:31;17.10;99.90
3940;DHT22;1984;48.312;9.244;2023-07-29T05:40:56;17.10;99.90
3940;DHT22;1984;48.312;9.244;2023-07-29T05:43:24;17.10;99.90
3940;DHT22;1984;48.312;9.244;2023-07-29T05:45:49;17.10;99.90
3940;DHT22;1984;48.312;9.244;2023-07-29T05:48:16;17.10;99.90
3940;DHT22;1984;48.312;9.244;2023-07-29T05:50:41;17.10;99.90
3940;DHT22;1984;48.312;9.244;2023-07-29T05:53:07;17.10;99.90
3940;DHT22;1984;48.312;9.244;2023-07-29T05:55:33;17.20;99.90
3940;DHT22;1984;48.312;9.244;2023-07-29T05:57:58;17.30;99.90
3940;DHT22;1984;48.312;9.244;2023-07-29T06:00:24;17.40;99.90
3940;DHT22;1984;48.312;9.244;2023-07-29T06:02:49;17.50;99.90
3940;DHT22;1984;48.312;9.244;2023-07-29T06:05:15;17.70;99.90
3940;DHT22;1984;48.312;9.244;2023-07-29T06:07:40;17.80;99.90
3940;DHT22;1984;48.312;9.244;2023-07-29T06:10:13;17.90;99.90
3940;DHT22;1984;48.312;9.244;2023-07-29T06:12:39;18.00;99.90
3940;DHT22;1984;48.312;9.244;2023-07-29T06:15:05;18.20;99.90
3940;DHT22;1984;48.312;9.244;2023-07-29T06:17:30;18.40;99.90
3940;DHT22;1984;48.312;9.244;2023-07-29T06:19:56;18.40;99.90
3940;DHT22;1984;48.312;9.244;2023-07-29T06:22:22;18.40;99.90
3940;DHT22;1984;48.312;9.244;2023-07-29T06:24:47;18.40;99.90
3940;DHT22;1984;48.312;9.244;2023-07-29T06:27:13;18.60;99.90
3940;DHT22;1984;48.312;9.244;2023-07-29T06:29:38;18.70;99.90
3940;DHT22;1984;48.312;9.244;2023-07-29T06:32:04;18.80;99.90
3940;DHT22;1984;48.312;9.244;2023-07-29T06:34:31;18.80;99.90
3940;DHT22;1984;48.312;9.244;2023-07-29T06:36:56;18.70;99.90
3940;DHT22;1984;48.312;9.244;2023-07-29T06:39:22;18.70;99.90
3940;DHT22;1984;48.312;9.244;2023-07-29T06:41:48;18.80;99.90
3940;DHT22;1984;48.312;9.244;2023-07-29T06:44:13;18.90;99.90
3940;DHT22;1984;48.312;9.244;2023-07-29T06:46:39;19.20;99.90
3940;DHT22;1984;48.312;9.244;2023-07-29T06:49:05;19.60;99.90
3940;DHT22;1984;48.312;9.244;2023-07-29T06:51:30;20.10;99.90
3940;DHT22;1984;48.312;9.244;2023-07-29T06:53:59;20.40;99.90
3940;DHT22;1984;48.312;9.244;2023-07-29T06:56:25;20.60;99.90
3940;DHT22;1984;48.312;9.244;2023-07-29T06:58:51;20.50;99.90
3940;DHT22;1984;48.312;9.244;2023-07-29T07:01:16;20.40;99.90
3940;DHT22;1984;48.312;9.244;2023-07-29T07:03:42;20.20;99.90
3940;DHT22;1984;48.312;9.244;2023-07-29T07:06:08;20.20;99.90
3940;DHT22;1984;48.312;9.244;2023-07-29T07:08:33;20.10;99.90
3940;DHT22;1984;48.312;9.244;2023-07-29T07:10:59;20.10;99.90
3940;DHT22;1984;48.312;9.244;2023-07-29T07:13:24;20.20;99.90
3940;DHT22;1984;48.312;9.244;2023-07-29T07:15:50;20.30;99.90
3940;DHT22;1984;48.312;9.244;2023-07-29T07:18:15;20.40;99.90
3940;DHT22;1984;48.312;9.244;2023-07-29T07:20:41;20.50;99.90
3940;DHT22;1984;48.312;9.244;2023-07-29T07:23:06;20.70;99.90
3940;DHT22;1984;48.312;9.244;2023-07-29T07:25:36;20.70;99.90
3940;DHT22;1984;48.312;9.244;2023-07-29T07:28:01;20.60;99.90
3940;DHT22;1984;48.312;9.244;2023-07-29T07:30:27;20.40;99.90
3940;DHT22;1984;48.312;9.244;2023-07-29T07:32:52;20.10;99.90
3940;DHT22;1984;48.312;9.244;2023-07-29T07:35:18;19.80;99.90
3940;DHT22;1984;48.312;9.244;2023-07-29T07:37:44;19.70;99.90
3940;DHT22;1984;48.312;9.244;2023-07-29T07:40:10;19.50;99.90
3940;DHT22;1984;48.312;9.244;2023-07-29T07:42:35;19.40;99.90
3940;DHT22;1984;48.312;9.244;2023-07-29T07:45:01;19.30;99.90
3940;DHT22;1984;48.312;9.244;2023-07-29T07:47:26;19.20;99.90
3940;DHT22;1984;48.312;9.244;2023-07-29T07:49:52;19.20;99.90
3940;DHT22;1984;48.312;9.244;2023-07-29T07:52:17;19.30;99.90
3940;DHT22;1984;48.312;9.244;2023-07-29T07:54:43;19.30;99.90
3940;DHT22;1984;48.312;9.244;2023-07-29T07:57:08;19.20;99.90
3940;DHT22;1984;48.312;9.244;2023-07-29T07:59:34;19.20;99.90
3940;DHT22;1984;48.312;9.244;2023-07-29T08:01:59;19.20;99.90
3940;DHT22;1984;48.312;9.244;2023-07-29T08:04:25;19.20;99.90
3940;DHT22;1984;48.312;9.244;2023-07-29T08:06:50;19.20;99.90
3940;DHT22;1984;48.312;9.244;2023-07-29T08:09:16;19.10;99.90
3940;DHT22;1984;48.312;9.244;2023-07-29T08:11:41;19.10;99.90
3940;DHT22;1984;48.312;9.244;2023-07-29T08:14:07;19.00;99.90
3940;DHT22;1984;48.312;9.244;2023-07-29T08:16:32;19.00;99.90
3940;DHT22;1984;48.312;9.244;2023-07-29T08:18:58;18.90;99.90
3940;DHT22;1984;48.312;9.244;2023-07-29T08:21:23;18.90;99.90
3940;DHT22;1984;48.312;9.244;2023-07-29T08:23:49;18.80;99.90
3940;DHT22;1984;48.312;9.244;2023-07-29T08:26:14;18.80;99.90
3940;DHT22;1984;48.312;9.244;2023-07-29T08:28:40;18.80;99.90
3940;DHT22;1984;48.312;9.244;2023-07-29T08:31:06;18.80;99.90
3940;DHT22;1984;48.312;9.244;2023-07-29T08:33:32;18.80;99.90
3940;DHT22;1984;48.312;9.244;2023-07-29T08:36:01;18.80;99.90
3940;DHT22;1984;48.312;9.244;2023-07-29T08:38:27;18.80;99.90
3940;DHT22;1984;48.312;9.244;2023-07-29T08:43:28;19.00;99.90
3940;DHT22;1984;48.312;9.244;2023-07-29T08:45:55;19.20;99.90
3940;DHT22;1984;48.312;9.244;2023-07-29T08:48:28;20.10;99.90
3940;DHT22;1984;48.312;9.244;2023-07-29T08:50:55;21.70;99.90
3940;DHT22;1984;48.312;9.244;2023-07-29T08:53:21;23.40;99.90
3940;DHT22;1984;48.312;9.244;2023-07-29T08:55:47;24.60;99.90
3940;DHT22;1984;48.312;9.244;2023-07-29T08:58:13;25.60;99.90
3940;DHT22;1984;48.312;9.244;2023-07-29T09:00:39;26.40;99.90
3940;DHT22;1984;48.312;9.244;2023-07-29T09:03:05;27.00;99.90
3940;DHT22;1984;48.312;9.244;2023-07-29T09:05:33;27.50;99.90
3940;DHT22;1984;48.312;9.244;2023-07-29T09:08:02;27.70;99.90
3940;DHT22;1984;48.312;9.244;2023-07-29T09:10:28;27.50;99.90
3940;DHT22;1984;48.312;9.244;2023-07-29T09:12:53;27.40;99.90
3940;DHT22;1984;48.312;9.244;2023-07-29T09:15:29;27.30;99.90
3940;DHT22;1984;48.312;9.244;2023-07-29T09:17:56;27.40;99.90
3940;DHT22;1984;48.312;9.244;2023-07-29T09:20:27;27.70;99.90
3940;DHT22;1984;48.312;9.244;2023-07-29T09:22:58;28.50;99.90
3940;DHT22;1984;48.312;9.244;2023-07-29T09:25:27;29.10;99.90
3940;DHT22;1984;48.312;9.244;2023-07-29T09:27:56;29.00;99.90
3940;DHT22;1984;48.312;9.244;2023-07-29T09:30:23;28.10;99.90
3940;DHT22;1984;48.312;9.244;2023-07-29T09:32:55;26.90;99.90
3940;DHT22;1984;48.312;9.244;2023-07-29T09:35:21;25.90;99.90
3940;DHT22;1984;48.312;9.244;2023-07-29T09:37:46;25.10;99.90
3940;DHT22;1984;48.312;9.244;2023-07-29T09:40:14;24.70;99.90
3940;DHT22;1984;48.312;9.244;2023-07-29T09:42:50;24.20;99.90
3940;DHT22;1984;48.312;9.244;2023-07-29T09:45:23;23.70;99.90
3940;DHT22;1984;48.312;9.244;2023-07-29T09:47:49;23.30;99.90
3940;DHT22;1984;48.312;9.244;2023-07-29T09:50:15;23.00;99.90
3940;DHT22;1984;48.312;9.244;2023-07-29T09:52:41;22.80;99.90
3940;DHT22;1984;48.312;9.244;2023-07-29T09:55:08;22.70;99.90
3940;DHT22;1984;48.312;9.244;2023-07-29T09:57:35;22.30;99.90
3940;DHT22;1984;48.312;9.244;2023-07-29T10:00:04;21.70;99.90
3940;DHT22;1984;48.312;9.244;2023-07-29T10:02:39;21.20;99.90
3940;DHT22;1984;48.312;9.244;2023-07-29T10:05:06;20.90;99.90
3940;DHT22;1984;48.312;9.244;2023-07-29T10:07:33;20.70;99.90
3940;DHT22;1984;48.312;9.244;2023-07-29T10:09:59;20.50;99.90
3940;DHT22;1984;48.312;9.244;2023-07-29T10:12:27;20.30;99.90
3940;DHT22;1984;48.312;9.244;2023-07-29T10:14:54;20.40;99.90
3940;DHT22;1984;48.312;9.244;2023-07-29T10:17:21;21.70;99.90
3940;DHT22;1984;48.312;9.244;2023-07-29T10:19:47;23.40;99.90
3940;DHT22;1984;48.312;9.244;2023-07-29T10:22:13;24.10;99.90
3940;DHT22;1984;48.312;9.244;2023-07-29T10:24:42;25.20;99.90
3940;DHT22;1984;48.312;9.244;2023-07-29T10:27:11;26.60;99.90
3940;DHT22;1984;48.312;9.244;2023-07-29T10:29:42;27.50;99.90
3940;DHT22;1984;48.312;9.244;2023-07-29T10:32:11;28.30;99.90
3940;DHT22;1984;48.312;9.244;2023-07-29T10:34:37;28.70;99.90
3940;DHT22;1984;48.312;9.244;2023-07-29T10:37:03;29.00;99.90
3940;DHT22;1984;48.312;9.244;2023-07-29T10:39:38;28.80;99.90
3940;DHT22;1984;48.312;9.244;2023-07-29T10:42:06;28.90;99.90
3940;DHT22;1984;48.312;9.244;2023-07-29T10:47:21;28.30;99.90
3940;DHT22;1984;48.312;9.244;2023-07-29T10:49:51;28.20;99.90
3940;DHT22;1984;48.312;9.244;2023-07-29T10:52:31;28.40;99.90
3940;DHT22;1984;48.312;9.244;2023-07-29T10:55:03;28.90;99.90
3940;DHT22;1984;48.312;9.244;2023-07-29T10:57:45;28.90;99.90
3940;DHT22;1984;48.312;9.244;2023-07-29T11:00:11;29.00;99.90
3940;DHT22;1984;48.312;9.244;2023-07-29T11:02:40;29.00;99.90
3940;DHT22;1984;48.312;9.244;2023-07-29T11:05:26;28.60;99.90
3940;DHT22;1984;48.312;9.244;2023-07-29T11:07:52;28.00;99.90
3940;DHT22;1984;48.312;9.244;2023-07-29T11:10:17;27.50;99.90
3940;DHT22;1984;48.312;9.244;2023-07-29T11:12:47;26.80;99.90
3940;DHT22;1984;48.312;9.244;2023-07-29T11:20:20;25.70;99.90
3940;DHT22;1984;48.312;9.244;2023-07-29T11:22:45;25.60;99.90
3940;DHT22;1984;48.312;9.244;2023-07-29T11:25:14;25.60;99.90
3940;DHT22;1984;48.312;9.244;2023-07-29T11:27:40;25.50;99.90
3940;DHT22;1984;48.312;9.244;2023-07-29T11:30:08;25.80;99.90
3940;DHT22;1984;48.312;9.244;2023-07-29T11:32:35;26.00;99.90
3940;DHT22;1984;48.312;9.244;2023-07-29T11:35:21;26.20;99.90
3940;DHT22;1984;48.312;9.244;2023-07-29T11:37:52;26.50;99.90
3940;DHT22;1984;48.312;9.244;2023-07-29T11:40:21;26.70;99.90
3940;DHT22;1984;48.312;9.244;2023-07-29T11:42:48;26.70;99.90
3940;DHT22;1984;48.312;9.244;2023-07-29T11:45:17;26.60;99.90
3940;DHT22;1984;48.312;9.244;2023-07-29T11:47:43;26.60;99.90
3940;DHT22;1984;48.312;9.244;2023-07-29T11:50:10;26.60;99.90
3940;DHT22;1984;48.312;9.244;2023-07-29T11:52:37;26.70;99.90
3940;DHT22;1984;48.312;9.244;2023-07-29T11:55:03;26.40;99.90
3940;DHT22;1984;48.312;9.244;2023-07-29T11:57:30;26.40;99.90
3940;DHT22;1984;48.312;9.244;2023-07-29T11:59:57;26.30;99.90
3940;DHT22;1984;48.312;9.244;2023-07-29T12:02:24;25.90;99.90
3940;DHT22;1984;48.312;9.244;2023-07-29T12:04:51;25.60;99.90
3940;DHT22;1984;48.312;9.244;2023-07-29T12:07:18;25.30;99.90
3940;DHT22;1984;48.312;9.244;2023-07-29T12:09:44;25.40;99.90
3940;DHT22;1984;48.312;9.244;2023-07-29T12:12:11;25.70;99.90
3940;DHT22;1984;48.312;9.244;2023-07-29T12:14:36;25.90;99.90
3940;DHT22;1984;48.312;9.244;2023-07-29T12:17:03;25.90;99.90
3940;DHT22;1984;48.312;9.244;2023-07-29T12:19:37;25.80;99.90
3940;DHT22;1984;48.312;9.244;2023-07-29T12:22:04;25.60;99.90
3940;DHT22;1984;48.312;9.244;2023-07-29T12:24:31;25.40;99.90
3940;DHT22;1984;48.312;9.244;2023-07-29T12:26:57;25.30;99.90
3940;DHT22;1984;48.312;9.244;2023-07-29T12:29:23;25.50;99.90
3940;DHT22;1984;48.312;9.244;2023-07-29T12:31:49;25.60;99.90
3940;DHT22;1984;48.312;9.244;2023-07-29T12:34:21;25.60;99.90
3940;DHT22;1984;48.312;9.244;2023-07-29T12:36:49;25.40;99.90
3940;DHT22;1984;48.312;9.244;2023-07-29T12:39:19;25.20;99.90
3940;DHT22;1984;48.312;9.244;2023-07-29T12:41:45;25.10;99.90
3940;DHT22;1984;48.312;9.244;2023-07-29T12:44:11;25.10;99.90
3940;DHT22;1984;48.312;9.244;2023-07-29T12:46:36;25.10;99.90
3940;DHT22;1984;48.312;9.244;2023-07-29T12:49:02;25.20;99.90
3940;DHT22;1984;48.312;9.244;2023-07-29T12:51:27;25.10;99.90
3940;DHT22;1984;48.312;9.244;2023-07-29T12:53:54;25.00;99.90
3940;DHT22;1984;48.312;9.244;2023-07-29T12:56:19;25.00;99.90
3940;DHT22;1984;48.312;9.244;2023-07-29T12:58:45;25.10;99.90
3940;DHT22;1984;48.312;9.244;2023-07-29T13:01:11;25.10;99.90
3940;DHT22;1984;48.312;9.244;2023-07-29T13:03:42;25.10;99.90
3940;DHT22;1984;48.312;9.244;2023-07-29T13:06:07;25.10;99.90
3940;DHT22;1984;48.312;9.244;2023-07-29T13:08:33;25.00;99.90
3940;DHT22;1984;48.312;9.244;2023-07-29T13:10:58;24.90;99.90
3940;DHT22;1984;48.312;9.244;2023-07-29T13:13:25;25.00;99.90
3940;DHT22;1984;48.312;9.244;2023-07-29T13:15:51;24.90;99.90
3940;DHT22;1984;48.312;9.244;2023-07-29T13:18:16;24.90;99.90
3940;DHT22;1984;48.312;9.244;2023-07-29T13:20:42;25.00;99.90
3940;DHT22;1984;48.312;9.244;2023-07-29T13:23:07;24.90;99.90
3940;DHT22;1984;48.312;9.244;2023-07-29T13:25:33;24.90;99.90
3940;DHT22;1984;48.312;9.244;2023-07-29T13:27:58;24.80;99.90
3940;DHT22;1984;48.312;9.244;2023-07-29T13:30:24;24.80;99.90
3940;DHT22;1984;48.312;9.244;2023-07-29T13:32:49;24.80;99.90
3940;DHT22;1984;48.312;9.244;2023-07-29T13:35:15;24.70;99.90
3940;DHT22;1984;48.312;9.244;2023-07-29T13:37:40;24.70;99.90
3940;DHT22;1984;48.312;9.244;2023-07-29T13:40:06;24.60;99.90
3940;DHT22;1984;48.312;9.244;2023-07-29T13:42:32;24.50;99.90
3940;DHT22;1984;48.312;9.244;2023-07-29T13:44:58;24.30;99.90
3940;DHT22;1984;48.312;9.244;2023-07-29T13:47:23;24.20;99.90
3940;DHT22;1984;48.312;9.244;2023-07-29T13:49:49;24.20;99.90
3940;DHT22;1984;48.312;9.244;2023-07-29T13:52:14;24.20;99.90
3940;DHT22;1984;48.312;9.244;2023-07-29T13:54:40;24.10;99.90
3940;DHT22;1984;48.312;9.244;2023-07-29T13:57:05;24.10;99.90
3940;DHT22;1984;48.312;9.244;2023-07-29T13:59:32;24.10;99.90
3940;DHT22;1984;48.312;9.244;2023-07-29T14:01:57;24.10;99.90
3940;DHT22;1984;48.312;9.244;2023-07-29T14:04:23;23.90;99.90
3940;DHT22;1984;48.312;9.244;2023-07-29T14:06:49;23.90;99.90
3940;DHT22;1984;48.312;9.244;2023-07-29T14:09:14;23.80;99.90
3940;DHT22;1984;48.312;9.244;2023-07-29T14:11:40;23.90;99.90
3940;DHT22;1984;48.312;9.244;2023-07-29T14:14:06;24.10;99.90
3940;DHT22;1984;48.312;9.244;2023-07-29T14:16:32;24.30;99.90
3940;DHT22;1984;48.312;9.244;2023-07-29T14:18:57;24.50;99.90
3940;DHT22;1984;48.312;9.244;2023-07-29T14:21:23;24.60;99.90
3940;DHT22;1984;48.312;9.244;2023-07-29T14:23:48;24.70;99.90
3940;DHT22;1984;48.312;9.244;2023-07-29T14:26:14;25.00;99.90
3940;DHT22;1984;48.312;9.244;2023-07-29T14:28:39;25.00;99.90
3940;DHT22;1984;48.312;9.244;2023-07-29T14:31:05;24.90;99.90
3940;DHT22;1984;48.312;9.244;2023-07-29T14:33:30;24.80;99.90
3940;DHT22;1984;48.312;9.244;2023-07-29T14:35:56;24.70;99.90
3940;DHT22;1984;48.312;9.244;2023-07-29T14:38:21;24.50;99.90
3940;DHT22;1984;48.312;9.244;2023-07-29T14:40:48;24.40;99.90
3940;DHT22;1984;48.312;9.244;2023-07-29T14:43:13;24.30;99.90
3940;DHT22;1984;48.312;9.244;2023-07-29T14:45:39;24.20;99.90
3940;DHT22;1984;48.312;9.244;2023-07-29T14:48:05;24.00;99.90
3940;DHT22;1984;48.312;9.244;2023-07-29T14:50:31;23.70;99.90
3940;DHT22;1984;48.312;9.244;2023-07-29T14:52:56;23.10;99.90
3940;DHT22;1984;48.312;9.244;2023-07-29T14:55:22;22.10;99.90
3940;DHT22;1984;48.312;9.244;2023-07-29T14:57:48;21.00;99.90
3940;DHT22;1984;48.312;9.244;2023-07-29T15:00:13;20.30;99.90
3940;DHT22;1984;48.312;9.244;2023-07-29T15:02:40;19.90;99.90
3940;DHT22;1984;48.312;9.244;2023-07-29T15:05:06;19.90;99.90
3940;DHT22;1984;48.312;9.244;2023-07-29T15:07:31;19.90;99.90
3940;DHT22;1984;48.312;9.244;2023-07-29T15:09:57;20.00;99.90
3940;DHT22;1984;48.312;9.244;2023-07-29T15:12:23;20.10;99.90
3940;DHT22;1984;48.312;9.244;2023-07-29T15:14:49;20.20;99.90
3940;DHT22;1984;48.312;9.244;2023-07-29T15:17:14;20.20;99.90
3940;DHT22;1984;48.312;9.244;2023-07-29T15:19:40;20.30;99.90
3940;DHT22;1984;48.312;9.244;2023-07-29T15:22:05;20.30;99.90
3940;DHT22;1984;48.312;9.244;2023-07-29T15:24:31;20.20;99.90
3940;DHT22;1984;48.312;9.244;2023-07-29T15:26:56;20.10;99.90
3940;DHT22;1984;48.312;9.244;2023-07-29T15:29:22;20.00;99.90
3940;DHT22;1984;48.312;9.244;2023-07-29T15:31:47;19.80;99.90
3940;DHT22;1984;48.312;9.244;2023-07-29T15:34:13;19.70;99.90
3940;DHT22;1984;48.312;9.244;2023-07-29T15:36:38;19.60;99.90
3940;DHT22;1984;48.312;9.244;2023-07-29T15:39:04;19.60;99.90
3940;DHT22;1984;48.312;9.244;2023-07-29T15:41:33;19.50;99.90
3940;DHT22;1984;48.312;9.244;2023-07-29T15:44:01;19.40;99.90
3940;DHT22;1984;48.312;9.244;2023-07-29T15:46:27;19.40;99.90
3940;DHT22;1984;48.312;9.244;2023-07-29T15:48:52;19.40;99.90
3940;DHT22;1984;48.312;9.244;2023-07-29T15:51:18;19.50;99.90
3940;DHT22;1984;48.312;9.244;2023-07-29T15:53:43;19.50;99.90
3940;DHT22;1984;48.312;9.244;2023-07-29T15:56:09;19.50;99.90
3940;DHT22;1984;48.312;9.244;2023-07-29T15:58:34;19.60;99.90
3940;DHT22;1984;48.312;9.244;2023-07-29T16:01:00;19.70;99.90
3940;DHT22;1984;48.312;9.244;2023-07-29T16:03:26;19.70;99.90
3940;DHT22;1984;48.312;9.244;2023-07-29T16:05:51;19.80;99.90
3940;DHT22;1984;48.312;9.244;2023-07-29T16:08:17;19.90;99.90
3940;DHT22;1984;48.312;9.244;2023-07-29T16:10:42;20.00;99.90
3940;DHT22;1984;48.312;9.244;2023-07-29T16:13:08;19.90;99.90
3940;DHT22;1984;48.312;9.244;2023-07-29T16:15:33;20.00;99.90
3940;DHT22;1984;48.312;9.244;2023-07-29T16:17:59;20.00;99.90